createdAt,value
2023-01-10T00:00:39.596Z,22.53
2023-01-10T00:01:39.513Z,22.53
2023-01-10T00:02:39.610Z,22.53
2023-01-10T00:03:39.427Z,22.53
2023-01-10T00:04:39.577Z,22.53
2023-01-10T00:05:39.339Z,22.54
2023-01-10T00:55:35.023Z,22.09
2023-01-10T00:56:35.963Z,22.33
2023-01-10T00:57:35.942Z,22.38
2023-01-10T00:58:35.943Z,22.43
2023-01-10T00:59:35.899Z,22.45
2023-01-10T01:00:35.874Z,22.47
2023-01-10T01:01:36.031Z,22.49
2023-01-10T01:02:35.894Z,22.49
2023-01-10T01:03:35.795Z,22.50
2023-01-10T01:04:35.778Z,22.51
2023-01-10T01:05:35.759Z,22.50
2023-01-10T01:06:35.746Z,22.50
2023-01-10T01:07:35.716Z,22.51
2023-01-10T01:08:35.684Z,22.52
2023-01-10T01:09:35.663Z,22.52
2023-01-10T01:10:35.633Z,22.52
2023-01-10T01:11:35.649Z,22.52
2023-01-10T01:12:35.616Z,22.52
2023-01-10T01:13:35.567Z,22.52
2023-01-10T01:14:35.534Z,22.54
2023-01-10T01:15:35.549Z,22.52
2023-01-10T01:16:35.470Z,22.52
2023-01-10T01:17:35.446Z,22.54
2023-01-10T01:18:35.420Z,22.52
2023-01-10T01:19:35.377Z,22.52
2023-01-10T01:20:35.343Z,22.54
2023-01-10T01:21:35.303Z,22.54
2023-01-10T01:22:35.275Z,22.54
2023-01-10T01:23:35.241Z,22.54
2023-01-10T01:24:35.218Z,22.54
2023-01-10T01:25:35.179Z,22.55
2023-01-10T01:26:35.155Z,22.55
2023-01-10T01:27:35.185Z,22.55
2023-01-10T01:28:35.128Z,22.56
2023-01-10T01:29:42.969Z,22.54
2023-01-10T01:30:35.106Z,22.53
2023-01-10T01:31:35.047Z,22.54
2023-01-10T01:32:35.039Z,22.53
2023-01-10T01:33:35.030Z,22.54
2023-01-10T01:34:35.002Z,22.54
2023-01-10T01:35:34.958Z,22.54
2023-01-10T01:36:34.923Z,22.54
2023-01-10T01:37:34.888Z,22.54
2023-01-10T01:38:34.858Z,22.53
2023-01-10T01:39:34.836Z,22.54
2023-01-10T01:40:34.811Z,22.54
2023-01-10T01:41:34.776Z,22.55
2023-01-10T01:42:34.749Z,22.53
2023-01-10T01:43:34.745Z,22.53
2023-01-10T01:44:34.690Z,22.54
2023-01-10T01:45:34.691Z,22.54
2023-01-10T01:46:34.707Z,22.53
2023-01-10T01:47:34.617Z,22.55
2023-01-10T01:48:34.614Z,22.53
2023-01-10T01:49:34.579Z,22.54
2023-01-10T01:50:34.570Z,22.54
2023-01-10T01:51:34.537Z,22.55
2023-01-10T01:52:34.500Z,22.55
2023-01-10T01:53:34.479Z,22.53
2023-01-10T01:54:34.461Z,22.53
2023-01-10T01:55:34.481Z,22.53
2023-01-10T01:56:34.420Z,22.54
2023-01-10T01:57:34.368Z,22.53
2023-01-10T01:58:34.344Z,22.54
2023-01-10T01:59:34.349Z,22.53
2023-01-10T02:00:34.320Z,22.53
2023-01-10T02:01:34.377Z,22.52
2023-01-10T02:02:34.243Z,22.53
2023-01-10T02:03:34.213Z,22.52
2023-01-10T02:04:34.184Z,22.53
2023-01-10T02:05:34.163Z,22.54
2023-01-10T02:06:34.141Z,22.53
2023-01-10T02:07:34.104Z,22.53
2023-01-10T02:08:34.081Z,22.54
2023-01-10T02:09:34.053Z,22.53
2023-01-10T02:10:34.018Z,22.53
2023-01-10T02:11:33.994Z,22.53
2023-01-10T02:12:33.980Z,22.53
2023-01-10T02:13:33.932Z,22.52
2023-01-10T02:14:33.892Z,22.53
2023-01-10T02:15:33.891Z,22.52
2023-01-10T02:16:33.851Z,22.52
2023-01-10T02:17:33.817Z,22.53
2023-01-10T02:18:33.789Z,22.53
2023-01-10T02:19:33.766Z,22.53
2023-01-10T02:20:33.750Z,22.52
2023-01-10T02:21:33.730Z,22.54
2023-01-10T02:22:33.711Z,22.53
2023-01-10T02:23:33.699Z,22.52
2023-01-10T02:24:33.670Z,22.51
2023-01-10T02:25:33.654Z,22.52
2023-01-10T02:26:33.640Z,22.51
2023-01-10T02:27:33.617Z,22.52
2023-01-10T02:28:33.609Z,22.52
2023-01-10T02:29:33.587Z,22.52
2023-01-10T02:30:33.566Z,22.52
2023-01-10T02:31:33.683Z,22.53
2023-01-10T02:32:43.864Z,22.53
2023-01-10T02:33:33.492Z,22.52
2023-01-10T02:34:33.496Z,22.53
2023-01-10T02:35:33.446Z,22.53
2023-01-10T02:36:33.440Z,22.53
2023-01-10T02:37:33.411Z,22.52
2023-01-10T02:38:33.391Z,22.53
2023-01-10T02:39:33.376Z,22.52
2023-01-10T02:40:33.356Z,22.53
2023-01-10T02:41:33.339Z,22.53
2023-01-10T02:42:33.308Z,22.52
2023-01-10T02:43:33.281Z,22.53
2023-01-10T02:44:33.266Z,22.52
2023-01-10T02:45:33.241Z,22.53
2023-01-10T02:46:33.256Z,22.53
2023-01-10T02:47:33.212Z,22.54
2023-01-10T02:48:33.164Z,22.54
2023-01-10T02:49:33.145Z,22.54
2023-01-10T02:50:33.140Z,22.54
2023-01-10T02:51:33.111Z,22.54
2023-01-10T02:52:33.070Z,22.54
2023-01-10T02:53:33.044Z,22.55
2023-01-10T02:54:33.021Z,22.54
2023-01-10T02:55:33.000Z,22.54
2023-01-10T02:56:32.967Z,22.54
2023-01-10T02:57:32.943Z,22.53
2023-01-10T02:58:32.917Z,22.54
2023-01-10T02:59:32.891Z,22.53
2023-01-10T03:00:32.862Z,22.53
2023-01-10T03:01:32.973Z,22.52
2023-01-10T03:02:32.813Z,22.52
2023-01-10T03:03:32.816Z,22.52
2023-01-10T03:04:32.822Z,22.53
2023-01-10T03:05:32.739Z,22.52
2023-01-10T03:06:32.731Z,22.53
2023-01-10T03:07:32.688Z,22.52
2023-01-10T03:08:32.657Z,22.52
2023-01-10T03:09:34.383Z,22.52
2023-01-10T03:10:32.599Z,22.52
2023-01-10T03:11:32.567Z,22.53
2023-01-10T03:12:32.536Z,22.52
2023-01-10T03:13:32.518Z,22.53
2023-01-10T03:14:32.511Z,22.53
2023-01-10T03:15:32.480Z,22.54
2023-01-10T03:16:32.467Z,22.53
2023-01-10T03:17:32.426Z,22.53
2023-01-10T03:18:32.395Z,22.52
2023-01-10T03:19:32.388Z,22.52
2023-01-10T03:20:32.336Z,22.52
2023-01-10T03:21:32.306Z,22.52
2023-01-10T03:22:32.279Z,22.53
2023-01-10T03:23:32.244Z,22.52
2023-01-10T03:24:32.220Z,22.52
2023-01-10T03:25:32.177Z,22.53
2023-01-10T03:26:32.145Z,22.52
2023-01-10T03:27:32.124Z,22.52
2023-01-10T03:28:32.104Z,22.52
2023-01-10T03:29:32.067Z,22.53
2023-01-10T03:30:32.039Z,22.53
2023-01-10T03:31:32.120Z,22.53
2023-01-10T03:32:32.001Z,22.53
2023-01-10T03:33:31.973Z,22.52
2023-01-10T03:34:31.984Z,22.53
2023-01-10T03:35:31.948Z,22.53
2023-01-10T03:36:31.902Z,22.52
2023-01-10T03:37:31.875Z,22.53
2023-01-10T03:38:31.851Z,22.52
2023-01-10T03:39:31.845Z,22.53
2023-01-10T03:40:31.823Z,22.53
2023-01-10T03:41:31.792Z,22.53
2023-01-10T03:42:31.771Z,22.54
2023-01-10T03:43:31.744Z,22.54
2023-01-10T03:44:31.717Z,22.53
2023-01-10T03:45:31.694Z,22.54
2023-01-10T03:46:31.765Z,22.54
2023-01-10T03:47:31.628Z,22.54
2023-01-10T03:48:31.618Z,22.54
2023-01-10T03:49:31.591Z,22.54
2023-01-10T03:50:31.564Z,22.54
2023-01-10T03:51:31.583Z,22.54
2023-01-10T03:52:31.523Z,22.55
2023-01-10T03:53:31.503Z,22.54
2023-01-10T03:54:31.488Z,22.55
2023-01-10T03:55:31.460Z,22.54
2023-01-10T03:56:31.437Z,22.55
2023-01-10T03:57:31.423Z,22.54
2023-01-10T03:58:31.398Z,22.53
2023-01-10T03:59:31.373Z,22.53
2023-01-10T04:00:31.364Z,22.54
2023-01-10T04:01:31.451Z,22.53
2023-01-10T04:02:31.339Z,22.54
2023-01-10T04:03:31.282Z,22.53
2023-01-10T04:04:31.256Z,22.54
2023-01-10T04:05:31.248Z,22.55
2023-01-10T04:06:31.230Z,22.54
2023-01-10T04:07:31.229Z,22.54
2023-01-10T04:08:31.187Z,22.54
2023-01-10T04:09:31.179Z,22.55
2023-01-10T04:10:31.142Z,22.55
2023-01-10T04:11:31.124Z,22.55
2023-01-10T04:12:31.107Z,22.55
2023-01-10T04:13:31.096Z,22.55
2023-01-10T04:14:31.067Z,22.55
2023-01-10T04:15:31.029Z,22.55
2023-01-10T04:16:31.070Z,22.53
2023-01-10T04:17:31.006Z,22.53
2023-01-10T04:18:31.020Z,22.53
2023-01-10T04:19:30.970Z,22.54
2023-01-10T04:20:30.969Z,22.53
2023-01-10T04:21:30.940Z,22.53
2023-01-10T04:22:30.915Z,22.53
2023-01-10T04:23:30.929Z,22.53
2023-01-10T04:24:30.865Z,22.54
2023-01-10T04:25:31.662Z,22.53
2023-01-10T04:26:30.804Z,22.54
2023-01-10T04:27:30.776Z,22.55
2023-01-10T04:28:30.755Z,22.54
2023-01-10T04:29:30.738Z,22.55
2023-01-10T04:30:30.717Z,22.55
2023-01-10T04:31:30.814Z,22.55
2023-01-10T04:32:30.664Z,22.54
2023-01-10T04:33:30.638Z,22.54
2023-01-10T04:34:30.616Z,22.54
2023-01-10T04:35:30.605Z,22.53
2023-01-10T04:36:30.591Z,22.53
2023-01-10T04:37:30.567Z,22.53
2023-01-10T04:38:30.547Z,22.54
2023-01-10T04:39:30.543Z,22.53
2023-01-10T04:40:30.491Z,22.54
2023-01-10T04:41:30.468Z,22.54
2023-01-10T04:42:30.452Z,22.53
2023-01-10T04:43:30.441Z,22.53
2023-01-10T04:44:30.421Z,22.53
2023-01-10T04:45:30.430Z,22.53
2023-01-10T04:46:30.359Z,22.55
2023-01-10T04:47:30.341Z,22.54
2023-01-10T04:48:30.304Z,22.55
2023-01-10T04:49:30.285Z,22.55
2023-01-10T04:50:30.265Z,22.54
2023-01-10T04:51:30.245Z,22.54
2023-01-10T04:52:30.222Z,22.54
2023-01-10T04:53:30.192Z,22.54
2023-01-10T04:54:30.173Z,22.55
2023-01-10T04:55:30.165Z,22.55
2023-01-10T04:56:30.119Z,22.53
2023-01-10T04:57:30.089Z,22.53
2023-01-10T04:58:30.056Z,22.52
2023-01-10T04:59:30.023Z,22.53
2023-01-10T05:00:30.002Z,22.52
2023-01-10T05:01:30.061Z,22.52
2023-01-10T05:02:30.102Z,22.52
2023-01-10T05:03:29.927Z,22.52
2023-01-10T05:04:29.896Z,22.52
2023-01-10T05:05:29.862Z,22.52
2023-01-10T05:06:29.836Z,22.53
2023-01-10T05:07:29.806Z,22.53
2023-01-10T05:08:29.778Z,22.54
2023-01-10T05:09:29.754Z,22.53
2023-01-10T05:10:29.736Z,22.53
2023-01-10T05:11:29.735Z,22.52
2023-01-10T05:12:29.684Z,22.52
2023-01-10T05:13:29.665Z,22.53
2023-01-10T05:14:29.651Z,22.53
2023-01-10T05:15:29.613Z,22.54
2023-01-10T05:16:29.654Z,22.54
2023-01-10T05:17:29.578Z,22.53
2023-01-10T05:18:29.556Z,22.54
2023-01-10T05:19:29.562Z,22.53
2023-01-10T05:20:29.510Z,22.53
2023-01-10T05:21:29.498Z,22.53
2023-01-10T05:22:29.469Z,22.53
2023-01-10T05:23:29.474Z,22.54
2023-01-10T05:24:29.433Z,22.52
2023-01-10T05:25:29.398Z,22.53
2023-01-10T05:26:29.396Z,22.53
2023-01-10T05:27:29.384Z,22.53
2023-01-10T05:28:29.343Z,22.52
2023-01-10T05:29:29.330Z,22.52
2023-01-10T05:30:29.297Z,22.52
2023-01-10T05:31:29.313Z,22.53
2023-01-10T05:32:29.264Z,22.54
2023-01-10T05:33:29.249Z,22.53
2023-01-10T05:34:29.216Z,22.53
2023-01-10T05:35:29.191Z,22.53
2023-01-10T05:36:29.165Z,22.53
2023-01-10T05:37:29.142Z,22.53
2023-01-10T05:38:29.114Z,22.53
2023-01-10T05:39:29.107Z,22.53
2023-01-10T05:40:29.084Z,22.53
2023-01-10T05:41:29.060Z,22.53
2023-01-10T05:42:29.031Z,22.53
2023-01-10T05:43:29.034Z,22.53
2023-01-10T05:44:28.998Z,22.53
2023-01-10T05:45:28.973Z,22.52
2023-01-10T05:46:28.959Z,22.52
2023-01-10T05:47:28.938Z,22.52
2023-01-10T05:48:28.927Z,22.53
2023-01-10T05:49:28.914Z,22.52
2023-01-10T05:50:28.885Z,22.52
2023-01-10T05:51:28.877Z,22.52
2023-01-10T05:52:29.683Z,22.52
2023-01-10T05:53:28.825Z,22.52
2023-01-10T05:54:28.791Z,22.52
2023-01-10T05:55:28.774Z,22.52
2023-01-10T05:56:28.768Z,22.51
2023-01-10T05:57:28.745Z,22.52
2023-01-10T05:58:28.720Z,22.53
2023-01-10T05:59:28.899Z,22.52
2023-01-10T06:00:28.666Z,22.52
2023-01-10T06:01:28.726Z,22.52
2023-01-10T06:02:28.703Z,22.52
2023-01-10T06:03:28.612Z,22.53
2023-01-10T06:04:28.576Z,22.52
2023-01-10T06:05:28.561Z,22.52
2023-01-10T06:06:28.546Z,22.53
2023-01-10T06:07:28.516Z,22.53
2023-01-10T06:08:28.489Z,22.52
2023-01-10T06:09:28.461Z,22.54
2023-01-10T06:10:28.443Z,22.52
2023-01-10T06:11:28.420Z,22.52
2023-01-10T06:12:28.398Z,22.52
2023-01-10T06:13:28.380Z,22.51
2023-01-10T06:14:28.356Z,22.52
2023-01-10T06:15:28.343Z,22.53
2023-01-10T06:16:28.292Z,22.53
2023-01-10T06:17:28.264Z,22.52
2023-01-10T06:18:28.236Z,22.52
2023-01-10T06:19:28.224Z,22.53
2023-01-10T06:20:28.199Z,22.52
2023-01-10T06:21:28.202Z,22.52
2023-01-10T06:22:28.127Z,22.52
2023-01-10T06:23:28.113Z,22.52
2023-01-10T06:24:28.092Z,22.52
2023-01-10T06:25:28.203Z,22.52
2023-01-10T06:26:28.072Z,22.54
2023-01-10T06:27:28.034Z,22.53
2023-01-10T06:28:28.108Z,22.54
2023-01-10T06:29:27.965Z,22.53
2023-01-10T06:30:28.221Z,22.53
2023-01-10T06:31:28.048Z,22.55
2023-01-10T06:32:27.911Z,22.55
2023-01-10T06:33:27.893Z,22.56
2023-01-10T06:34:27.858Z,22.56
2023-01-10T06:35:27.856Z,22.56
2023-01-10T06:36:27.822Z,22.56
2023-01-10T06:37:28.211Z,22.56
2023-01-10T06:38:27.776Z,22.57
2023-01-10T06:39:27.747Z,22.57
2023-01-10T06:40:27.714Z,22.56
2023-01-10T06:41:27.694Z,22.57
2023-01-10T06:42:27.731Z,22.58
2023-01-10T06:43:27.644Z,22.60
2023-01-10T06:44:27.649Z,22.61
2023-01-10T06:45:27.586Z,22.61
2023-01-10T06:46:27.564Z,22.63
2023-01-10T06:47:27.737Z,22.63
2023-01-10T06:48:27.530Z,22.64
2023-01-10T06:49:27.523Z,22.65
2023-01-10T06:50:27.495Z,22.65
2023-01-10T06:51:27.500Z,22.66
2023-01-10T06:52:27.726Z,22.67
2023-01-10T06:53:27.430Z,22.67
2023-01-10T06:54:27.421Z,22.66
2023-01-10T06:55:28.451Z,22.69
2023-01-10T06:56:27.348Z,22.68
2023-01-10T06:57:27.723Z,22.69
2023-01-10T06:58:27.303Z,22.71
2023-01-10T06:59:27.268Z,22.75
2023-01-10T07:00:27.238Z,22.76
2023-01-10T07:01:27.303Z,22.79
2023-01-10T07:02:27.295Z,22.82
2023-01-10T07:03:27.296Z,22.84
2023-01-10T07:04:27.196Z,22.87
2023-01-10T07:05:27.157Z,22.89
2023-01-10T07:06:27.101Z,22.91
2023-01-10T07:07:27.116Z,22.95
2023-01-10T07:08:27.215Z,22.97
2023-01-10T07:09:27.116Z,23.01
2023-01-10T07:10:27.219Z,23.03
2023-01-10T07:11:26.974Z,23.05
2023-01-10T07:12:26.924Z,23.08
2023-01-10T07:13:26.904Z,23.10
2023-01-10T07:14:30.105Z,23.12
2023-01-10T07:15:27.213Z,23.15
2023-01-10T07:16:26.893Z,23.17
2023-01-10T07:17:26.790Z,23.19
2023-01-10T07:18:26.759Z,23.20
2023-01-10T07:19:26.747Z,23.22
2023-01-10T07:20:26.755Z,23.24
2023-01-10T07:21:26.665Z,23.25
2023-01-10T07:22:26.738Z,23.25
2023-01-10T07:23:26.610Z,23.26
2023-01-10T07:24:26.732Z,23.27
2023-01-10T07:25:26.552Z,23.27
2023-01-10T07:26:26.518Z,23.28
2023-01-10T07:27:26.726Z,23.30
2023-01-10T07:28:26.448Z,23.32
2023-01-10T07:29:26.416Z,23.32
2023-01-10T07:30:26.374Z,23.33
2023-01-10T07:31:26.456Z,23.33
2023-01-10T07:32:26.727Z,23.34
2023-01-10T07:33:26.260Z,23.34
2023-01-10T07:34:26.209Z,23.35
2023-01-10T07:35:26.222Z,23.37
2023-01-10T07:36:26.141Z,23.37
2023-01-10T07:37:26.257Z,23.38
2023-01-10T07:38:26.069Z,23.39
2023-01-10T07:39:26.028Z,23.40
2023-01-10T07:40:25.991Z,23.42
2023-01-10T07:41:25.958Z,23.43
2023-01-10T07:42:26.303Z,23.44
2023-01-10T07:43:25.923Z,23.44
2023-01-10T07:44:26.238Z,23.43
2023-01-10T07:45:25.813Z,23.43
2023-01-10T07:46:25.811Z,23.38
2023-01-10T07:47:25.736Z,23.04
2023-01-10T07:48:25.704Z,22.28
2023-01-10T07:49:26.700Z,21.62
2023-01-10T07:50:25.660Z,21.23
2023-01-10T07:51:25.696Z,21.01
2023-01-10T07:52:25.742Z,20.82
2023-01-10T07:53:25.651Z,20.64
2023-01-10T07:54:25.658Z,20.51
2023-01-10T07:55:25.661Z,20.38
2023-01-10T07:56:25.667Z,20.30
2023-01-10T07:57:25.733Z,20.19
2023-01-10T07:58:25.698Z,20.11
2023-01-10T07:59:25.702Z,20.01
2023-01-10T08:00:25.716Z,19.91
2023-01-10T08:01:25.804Z,19.80
2023-01-10T08:02:25.932Z,19.72
2023-01-10T08:03:25.932Z,19.67
2023-01-10T08:04:25.759Z,19.64
2023-01-10T08:05:25.759Z,19.63
2023-01-10T08:06:25.784Z,19.62
2023-01-10T08:07:26.264Z,19.60
2023-01-10T08:08:25.786Z,19.56
2023-01-10T08:09:26.239Z,19.55
2023-01-10T08:10:26.330Z,19.53
2023-01-10T08:11:25.807Z,19.55
2023-01-10T08:12:27.741Z,19.67
2023-01-10T08:13:25.801Z,19.85
2023-01-10T08:14:26.319Z,20.03
2023-01-10T08:15:25.797Z,20.20
2023-01-10T08:16:25.899Z,20.36
2023-01-10T08:17:25.779Z,20.50
2023-01-10T08:18:27.272Z,20.63
2023-01-10T08:19:25.761Z,20.76
2023-01-10T08:20:25.749Z,20.87
2023-01-10T08:21:25.746Z,20.97
2023-01-10T08:22:28.926Z,21.08
2023-01-10T08:23:25.683Z,21.17
2023-01-10T08:24:25.669Z,21.25
2023-01-10T08:25:25.665Z,21.34
2023-01-10T08:26:25.742Z,21.42
2023-01-10T08:27:25.626Z,21.50
2023-01-10T08:28:25.609Z,21.57
2023-01-10T08:29:25.601Z,21.62
2023-01-10T08:30:25.587Z,21.67
2023-01-10T08:31:25.878Z,21.71
2023-01-10T08:32:25.555Z,21.75
2023-01-10T08:33:25.574Z,21.79
2023-01-10T08:34:25.505Z,21.83
2023-01-10T08:35:25.489Z,21.85
2023-01-10T08:36:25.741Z,21.87
2023-01-10T08:37:25.467Z,21.90
2023-01-10T08:38:25.458Z,21.92
2023-01-10T08:39:25.814Z,21.95
2023-01-10T08:40:25.400Z,21.98
2023-01-10T08:41:25.368Z,22.02
2023-01-10T08:42:25.348Z,22.05
2023-01-10T08:43:25.317Z,22.08
2023-01-10T08:44:25.749Z,22.11
2023-01-10T08:45:25.286Z,22.15
2023-01-10T08:46:25.765Z,22.19
2023-01-10T08:47:25.247Z,22.07
2023-01-10T08:48:25.235Z,22.00
2023-01-10T08:49:25.240Z,21.97
2023-01-10T08:50:25.214Z,22.00
2023-01-10T08:51:25.262Z,22.03
2023-01-10T08:52:25.176Z,22.07
2023-01-10T08:53:25.153Z,22.12
2023-01-10T08:54:25.175Z,22.18
2023-01-10T08:55:25.121Z,22.24
2023-01-10T08:56:25.260Z,22.32
2023-01-10T08:57:25.033Z,22.38
2023-01-10T08:58:25.036Z,22.44
2023-01-10T08:59:25.016Z,22.49
2023-01-10T09:00:24.954Z,22.55
2023-01-10T09:01:25.497Z,22.60
2023-01-10T09:02:24.925Z,22.65
2023-01-10T09:03:25.372Z,22.70
2023-01-10T09:04:24.856Z,22.73
2023-01-10T09:05:28.608Z,22.78
2023-01-10T09:06:25.297Z,22.81
2023-01-10T09:07:25.034Z,22.83
2023-01-10T09:08:24.754Z,22.87
2023-01-10T09:09:24.792Z,22.89
2023-01-10T09:10:24.671Z,22.91
2023-01-10T09:11:24.650Z,22.93
2023-01-10T09:12:24.576Z,22.97
2023-01-10T09:13:24.553Z,23.00
2023-01-10T09:14:24.556Z,23.02
2023-01-10T09:15:24.528Z,23.04
2023-01-10T09:16:24.517Z,23.07
2023-01-10T09:17:24.766Z,23.08
2023-01-10T09:18:24.447Z,23.09
2023-01-10T09:19:24.765Z,23.10
2023-01-10T09:20:24.372Z,23.12
2023-01-10T09:21:24.355Z,23.14
2023-01-10T09:22:24.297Z,23.16
2023-01-10T09:23:24.257Z,23.17
2023-01-10T09:24:24.280Z,23.18
2023-01-10T09:25:24.246Z,23.18
2023-01-10T09:26:24.201Z,23.18
2023-01-10T09:27:24.142Z,23.21
2023-01-10T09:28:24.133Z,23.22
2023-01-10T09:29:24.078Z,23.23
2023-01-10T09:30:24.035Z,23.24
2023-01-10T09:31:24.126Z,23.28
2023-01-10T09:32:24.266Z,23.28
2023-01-10T09:33:24.005Z,23.29
2023-01-10T09:34:23.889Z,23.32
2023-01-10T09:35:24.273Z,23.31
2023-01-10T09:36:23.820Z,23.32
2023-01-10T09:37:23.765Z,23.33
2023-01-10T09:38:23.865Z,23.35
2023-01-10T09:39:24.654Z,23.36
2023-01-10T09:40:23.629Z,23.35
2023-01-10T09:41:23.610Z,23.36
2023-01-10T09:42:23.568Z,23.37
2023-01-10T09:43:23.801Z,23.36
2023-01-10T09:44:23.814Z,23.37
2023-01-10T09:45:23.442Z,23.37
2023-01-10T09:46:23.483Z,23.36
2023-01-10T09:47:23.505Z,23.37
2023-01-10T09:48:23.363Z,23.37
2023-01-10T09:49:23.304Z,23.38
2023-01-10T09:50:23.253Z,23.38
2023-01-10T09:51:23.243Z,23.38
2023-01-10T09:52:23.196Z,23.38
2023-01-10T09:53:23.285Z,23.40
2023-01-10T09:54:23.435Z,23.40
2023-01-10T09:55:23.088Z,23.42
2023-01-10T09:56:23.115Z,23.42
2023-01-10T09:57:23.091Z,23.44
2023-01-10T09:58:23.080Z,23.44
2023-01-10T09:59:23.655Z,23.45
2023-01-10T10:00:22.934Z,23.45
2023-01-10T10:01:22.991Z,23.47
2023-01-10T10:02:23.034Z,23.51
2023-01-10T10:03:22.894Z,23.53
2023-01-10T10:04:23.114Z,23.54
2023-01-10T10:05:22.883Z,23.56
2023-01-10T10:06:22.840Z,23.58
2023-01-10T10:07:22.811Z,23.59
2023-01-10T10:08:22.705Z,23.59
2023-01-10T10:09:22.656Z,23.61
2023-01-10T10:10:22.888Z,23.61
2023-01-10T10:11:22.588Z,23.62
2023-01-10T10:12:22.570Z,23.62
2023-01-10T10:13:27.501Z,23.62
2023-01-10T10:14:22.492Z,23.62
2023-01-10T10:15:22.783Z,23.62
2023-01-10T10:16:22.380Z,23.63
2023-01-10T10:17:22.225Z,23.64
2023-01-10T10:18:22.190Z,23.66
2023-01-10T10:19:22.172Z,23.67
2023-01-10T10:20:22.293Z,23.68
2023-01-10T10:21:22.067Z,23.68
2023-01-10T10:22:22.039Z,23.69
2023-01-10T10:23:21.999Z,23.69
2023-01-10T10:24:21.955Z,23.70
2023-01-10T10:25:22.328Z,23.70
2023-01-10T10:26:21.932Z,23.70
2023-01-10T10:27:21.945Z,23.70
2023-01-10T10:28:21.829Z,23.69
2023-01-10T10:29:21.949Z,23.67
2023-01-10T10:30:23.346Z,23.67
2023-01-10T10:31:21.975Z,23.65
2023-01-10T10:32:21.841Z,23.64
2023-01-10T10:33:21.806Z,23.62
2023-01-10T10:34:21.742Z,23.60
2023-01-10T10:35:21.885Z,23.57
2023-01-10T10:36:22.165Z,23.55
2023-01-10T10:37:21.732Z,23.49
2023-01-10T10:38:21.799Z,23.47
2023-01-10T10:39:21.590Z,23.45
2023-01-10T10:40:21.651Z,23.44
2023-01-10T10:41:21.490Z,23.44
2023-01-10T10:42:21.439Z,23.43
2023-01-10T10:43:22.054Z,23.42
2023-01-10T10:44:21.383Z,23.42
2023-01-10T10:45:23.432Z,23.40
2023-01-10T10:46:21.304Z,23.39
2023-01-10T10:47:21.257Z,23.39
2023-01-10T10:48:21.311Z,23.39
2023-01-10T10:49:21.188Z,23.38
2023-01-10T10:50:21.144Z,23.38
2023-01-10T10:51:21.182Z,23.38
2023-01-10T10:52:21.313Z,23.38
2023-01-10T10:53:21.008Z,23.37
2023-01-10T10:54:20.978Z,23.37
2023-01-10T10:55:20.953Z,23.36
2023-01-10T10:56:20.935Z,23.34
2023-01-10T10:57:20.890Z,23.25
2023-01-10T10:58:20.887Z,22.82
2023-01-10T10:59:20.886Z,22.56
2023-01-10T11:00:20.819Z,22.47
2023-01-10T11:01:20.991Z,22.45
2023-01-10T11:02:20.802Z,22.47
2023-01-10T11:03:20.744Z,22.50
2023-01-10T11:04:20.732Z,22.53
2023-01-10T11:05:20.959Z,22.58
2023-01-10T11:06:20.698Z,22.62
2023-01-10T11:07:20.805Z,22.67
2023-01-10T11:08:20.621Z,22.71
2023-01-10T11:09:20.583Z,22.77
2023-01-10T11:10:20.552Z,22.82
2023-01-10T11:11:20.525Z,22.86
2023-01-10T11:12:20.804Z,22.90
2023-01-10T11:13:20.455Z,22.95
2023-01-10T11:14:20.420Z,22.99
2023-01-10T11:15:20.400Z,23.03
2023-01-10T11:16:20.399Z,23.07
2023-01-10T11:17:20.317Z,23.07
2023-01-10T11:18:20.307Z,22.88
2023-01-10T11:19:20.267Z,22.64
2023-01-10T11:20:20.364Z,22.11
2023-01-10T11:21:22.093Z,21.56
2023-01-10T11:22:20.207Z,21.22
2023-01-10T11:23:20.195Z,21.08
2023-01-10T11:24:20.185Z,20.95
2023-01-10T11:25:20.407Z,20.85
2023-01-10T11:26:20.167Z,20.84
2023-01-10T11:27:20.178Z,20.92
2023-01-10T11:28:20.147Z,21.04
2023-01-10T11:29:20.127Z,21.17
2023-01-10T11:30:20.336Z,21.30
2023-01-10T11:31:20.349Z,21.44
2023-01-10T11:32:20.111Z,21.57
2023-01-10T11:33:20.601Z,21.71
2023-01-10T11:34:20.349Z,21.85
2023-01-10T11:35:20.171Z,21.97
2023-01-10T11:36:20.038Z,22.11
2023-01-10T11:37:20.317Z,22.22
2023-01-10T11:38:19.987Z,22.33
2023-01-10T11:39:20.315Z,22.43
2023-01-10T11:40:19.926Z,22.53
2023-01-10T11:41:19.905Z,22.62
2023-01-10T11:42:19.903Z,22.71
2023-01-10T11:43:20.270Z,22.78
2023-01-10T11:44:20.818Z,22.84
2023-01-10T11:45:20.836Z,22.89
2023-01-10T11:46:19.853Z,22.96
2023-01-10T11:47:19.704Z,23.00
2023-01-10T11:48:20.280Z,23.03
2023-01-10T11:49:19.856Z,23.07
2023-01-10T11:50:19.777Z,23.11
2023-01-10T11:51:19.567Z,23.14
2023-01-10T11:52:19.840Z,23.16
2023-01-10T11:53:19.502Z,23.18
2023-01-10T11:54:19.455Z,23.21
2023-01-10T11:55:19.491Z,23.23
2023-01-10T11:56:19.391Z,23.23
2023-01-10T11:57:19.825Z,23.25
2023-01-10T11:58:19.330Z,23.25
2023-01-10T11:59:19.295Z,23.26
2023-01-10T12:00:19.292Z,23.28
2023-01-10T12:01:19.280Z,23.29
2023-01-10T12:02:19.364Z,23.31
2023-01-10T12:03:19.204Z,23.31
2023-01-10T12:04:19.154Z,23.32
2023-01-10T12:05:19.196Z,23.33
2023-01-10T12:06:19.092Z,23.35
2023-01-10T12:07:19.323Z,23.35
2023-01-10T12:08:18.988Z,23.37
2023-01-10T12:09:19.327Z,23.38
2023-01-10T12:10:21.011Z,23.40
2023-01-10T12:11:18.879Z,23.41
2023-01-10T12:12:19.325Z,23.42
2023-01-10T12:13:18.801Z,23.42
2023-01-10T12:14:19.066Z,23.43
2023-01-10T12:15:18.721Z,23.43
2023-01-10T12:16:18.787Z,23.42
2023-01-10T12:17:18.831Z,23.40
2023-01-10T12:18:18.621Z,23.34
2023-01-10T12:19:18.619Z,23.23
2023-01-10T12:20:18.561Z,23.10
2023-01-10T12:21:18.547Z,23.02
2023-01-10T12:22:18.855Z,22.92
2023-01-10T12:23:18.503Z,22.81
2023-01-10T12:24:18.468Z,22.80
2023-01-10T12:25:18.450Z,22.82
2023-01-10T12:26:18.409Z,22.85
2023-01-10T12:27:18.834Z,22.89
2023-01-10T12:28:18.358Z,22.95
2023-01-10T12:29:18.314Z,22.99
2023-01-10T12:30:18.287Z,23.04
2023-01-10T12:31:18.335Z,23.10
2023-01-10T12:32:18.225Z,23.15
2023-01-10T12:33:18.335Z,23.19
2023-01-10T12:34:18.141Z,23.23
2023-01-10T12:35:18.103Z,23.27
2023-01-10T12:36:18.065Z,23.30
2023-01-10T12:37:18.029Z,23.33
2023-01-10T12:38:18.364Z,23.34
2023-01-10T12:39:17.961Z,23.36
2023-01-10T12:40:17.932Z,23.38
2023-01-10T12:41:17.897Z,23.39
2023-01-10T12:42:17.864Z,23.42
2023-01-10T12:43:17.874Z,23.43
2023-01-10T12:44:18.341Z,23.44
2023-01-10T12:45:18.099Z,23.44
2023-01-10T12:46:33.625Z,23.45
2023-01-10T12:47:17.955Z,23.44
2023-01-10T12:48:17.861Z,23.46
2023-01-10T12:49:17.600Z,23.47
2023-01-10T12:50:17.530Z,23.48
2023-01-10T12:51:17.489Z,23.49
2023-01-10T12:52:17.462Z,23.49
2023-01-10T12:53:17.931Z,23.49
2023-01-10T12:54:17.386Z,23.49
2023-01-10T12:55:17.457Z,23.49
2023-01-10T12:56:17.320Z,23.48
2023-01-10T12:57:17.253Z,23.46
2023-01-10T12:58:17.344Z,23.44
2023-01-10T12:59:23.749Z,23.42
2023-01-10T13:00:17.148Z,23.41
2023-01-10T13:01:17.274Z,23.39
2023-01-10T13:02:17.149Z,23.38
2023-01-10T13:03:17.354Z,23.37
2023-01-10T13:04:16.983Z,23.36
2023-01-10T13:05:16.989Z,23.35
2023-01-10T13:06:16.915Z,23.34
2023-01-10T13:07:16.870Z,23.34
2023-01-10T13:08:17.258Z,23.33
2023-01-10T13:09:17.322Z,23.32
2023-01-10T13:10:16.786Z,23.32
2023-01-10T13:11:16.730Z,23.29
2023-01-10T13:12:16.680Z,23.30
2023-01-10T13:13:16.852Z,23.28
2023-01-10T13:14:16.640Z,23.28
2023-01-10T13:15:16.593Z,23.27
2023-01-10T13:16:16.560Z,23.26
2023-01-10T13:17:16.533Z,23.25
2023-01-10T13:18:16.856Z,23.23
2023-01-10T13:19:16.855Z,23.23
2023-01-10T13:20:16.429Z,23.22
2023-01-10T13:21:16.397Z,23.21
2023-01-10T13:22:16.363Z,23.21
2023-01-10T13:23:16.332Z,23.20
2023-01-10T13:24:16.355Z,23.20
2023-01-10T13:25:16.378Z,23.19
2023-01-10T13:26:16.379Z,23.19
2023-01-10T13:27:16.177Z,23.18
2023-01-10T13:28:16.238Z,23.18
2023-01-10T13:29:16.357Z,23.17
2023-01-10T13:30:16.089Z,23.17
2023-01-10T13:31:16.458Z,23.17
2023-01-10T13:32:16.036Z,23.16
2023-01-10T13:33:16.032Z,23.16
2023-01-10T13:34:16.367Z,23.16
2023-01-10T13:35:15.945Z,23.16
2023-01-10T13:36:15.949Z,23.16
2023-01-10T13:37:15.878Z,23.15
2023-01-10T13:38:15.862Z,23.14
2023-01-10T13:39:15.889Z,23.15
2023-01-10T13:40:15.800Z,23.14
2023-01-10T13:41:15.773Z,23.14